Claremorris, Ireland
Current Conditions -  °F | °C
As of 2:30 PM on Monday 26 Jan 2015 (Local Time) from EIKN Reporting Station
Broken Clouds Broken Clouds  
Wind Chill: 36°   Ceiling: 30000
Heat Index: 43°   Visibility: 6mi
Dew Point: 37°   Wind: 14mph
Humidity: 81%   Direction: 280°W
Pressure: 30.36"   Gusts: NA
Location:  53.73°N, 9.01°W
Report Text: EIKN 261430Z 28012KT 9999 FEW024 SCT040 BKN300 06/03 Q1028 NOSIG
Loading
Personal Weather Stations






























Interactive Weather Map New forecast layout! Learn more

10-Day Weather Forecast

Advertisements
Track Severe Weather on mobile